Time;durP1;ratioP1;P1;durP2;ratioP2;P2;SDS_P1;SDS_P2;PMS_P1;PMS_P2;Temp;Humidity;BMP_temperature;BMP_pressure;BME280_temperature;BME280_humidity;BME280_pressure;Samples;Min_cycle;Max_cycle;Signal;HPM_P1;HPM_P2
2021/01/02 00:00:53;;;;;;;28.55;21.20;;;;;;;5.50;100.00;101078.73;1788686;80;21359;-92
2021/01/02 00:04:08;;;;;;;23.80;18.37;;;;;;;5.49;100.00;101080.50;1788354;80;21143;-92
2021/01/02 00:07:00;;;;;;;25.70;19.65;;;;;;;5.48;100.00;101076.23;1788498;80;21187;-93
2021/01/02 00:09:32;;;;;;;27.17;19.82;;;;;;;5.45;100.00;101075.08;1788628;80;21179;-93
2021/01/02 00:12:26;;;;;;;27.87;19.17;;;;;;;5.43;100.00;101073.48;1788533;80;21108;-90
2021/01/02 00:15:08;;;;;;;29.70;21.15;;;;;;;5.41;100.00;101073.56;1722159;83;22246;-91
2021/01/02 00:17:47;;;;;;;29.80;22.50;;;;;;;5.40;100.00;101077.52;1719137;83;21045;-92
2021/01/02 00:20:49;;;;;;;32.67;23.07;;;;;;;5.36;100.00;101069.89;1718714;83;21175;-92
2021/01/02 00:24:06;;;;;;;32.50;23.18;;;;;;;5.35;100.00;101080.30;1689080;83;21178;-92
2021/01/02 00:26:47;;;;;;;28.67;20.92;;;;;;;5.34;100.00;101072.98;1707803;83;21171;-92
2021/01/02 00:29:23;;;;;;;29.80;21.12;;;;;;;5.33;100.00;101068.73;1698689;84;21217;-92
2021/01/02 00:32:03;;;;;;;28.77;20.45;;;;;;;5.34;100.00;101074.28;1698595;84;21694;-91
2021/01/02 00:34:52;;;;;;;27.50;18.87;;;;;;;5.34;100.00;101071.70;1719381;83;21112;-91
2021/01/02 00:37:43;;;;;;;27.95;17.92;;;;;;;5.34;100.00;101069.58;1727477;82;21171;-91
2021/01/02 00:40:18;;;;;;;25.55;19.65;;;;;;;5.30;100.00;101071.47;1727871;83;21096;-91
2021/01/02 00:42:50;;;;;;;25.82;19.00;;;;;;;5.27;100.00;101069.02;1705217;83;21562;-91
2021/01/02 00:45:24;;;;;;;27.45;20.08;;;;;;;5.26;100.00;101078.95;1698517;84;21175;-92
2021/01/02 00:47:53;;;;;;;26.87;18.77;;;;;;;5.29;100.00;101079.30;1698605;84;21144;-91
2021/01/02 00:50:26;;;;;;;26.37;20.08;;;;;;;5.29;100.00;101075.42;1694700;84;21194;-92
2021/01/02 00:53:18;;;;;;;25.35;19.77;;;;;;;5.29;100.00;101080.13;1698671;84;21151;-92
2021/01/02 00:56:07;;;;;;;26.20;18.62;;;;;;;5.30;100.00;101090.84;1697468;84;21213;-92
2021/01/02 00:59:38;;;;;;;30.62;21.05;;;;;;;5.30;100.00;101101.17;1695993;84;21100;-92
2021/01/02 01:03:06;;;;;;;32.28;21.40;;;;;;;5.33;100.00;101115.69;1852830;77;22331;-92
2021/01/02 01:06:04;;;;;;;25.00;17.15;;;;;;;5.28;100.00;101127.51;1843535;77;21136;-92
2021/01/02 01:08:45;;;;;;;26.82;17.92;;;;;;;5.23;100.00;101133.34;1846331;77;21360;-91
2021/01/02 01:11:14;;;;;;;24.85;19.15;;;;;;;5.17;100.00;101134.87;1844534;77;21056;-92
2021/01/02 01:13:53;;;;;;;24.37;16.10;;;;;;;5.15;100.00;101137.53;1846447;77;21143;-92
2021/01/02 01:16:26;;;;;;;26.35;19.05;;;;;;;5.10;100.00;101143.80;1840645;77;20953;-92
2021/01/02 01:19:04;;;;;;;20.45;16.00;;;;;;;5.04;100.00;101143.64;1846459;77;21108;-92
2021/01/02 01:21:40;;;;;;;21.77;15.70;;;;;;;4.99;100.00;101150.72;1845306;77;21351;-91
2021/01/02 01:31:59;;;;;;;26.42;16.77;;;;;;;4.89;100.00;101164.48;1846477;77;21107;-92
2021/01/02 01:34:29;;;;;;;24.18;16.60;;;;;;;4.91;100.00;101157.52;1844466;77;21169;-92
2021/01/02 01:37:02;;;;;;;23.90;16.87;;;;;;;4.91;100.00;101157.52;1816813;77;21128;-92
2021/01/02 01:39:33;;;;;;;22.80;16.40;;;;;;;4.94;100.00;101156.55;1777048;80;21158;-92
2021/01/02 01:42:06;;;;;;;21.87;16.05;;;;;;;4.98;100.00;101152.91;1779564;80;21103;-92
2021/01/02 01:44:47;;;;;;;24.55;17.07;;;;;;;5.02;100.00;101146.73;1777233;80;21130;-92
2021/01/02 01:47:36;;;;;;;23.67;16.80;;;;;;;5.04;100.00;101145.76;1776867;80;21446;-92
2021/01/02 01:50:25;;;;;;;21.90;16.82;;;;;;;5.07;100.00;101148.66;1756155;80;21378;-90
2021/01/02 01:53:34;;;;;;;23.10;16.02;;;;;;;5.08;100.00;101143.05;1779410;80;21126;-91
2021/01/02 01:56:15;;;;;;;25.17;16.17;;;;;;;5.13;100.00;101147.55;1796022;78;21161;-92
2021/01/02 01:58:58;;;;;;;26.50;17.27;;;;;;;5.15;100.00;101153.03;1810094;79;21578;-92
2021/01/02 02:01:33;;;;;;;23.00;16.87;;;;;;;5.15;100.00;101156.08;1808517;79;21410;-91
2021/01/02 02:04:13;;;;;;;22.62;15.72;;;;;;;5.13;100.00;101156.59;1805705;78;21374;-90
2021/01/02 02:06:53;;;;;;;24.52;17.55;;;;;;;5.13;100.00;101169.50;1847209;77;21591;-91
2021/01/02 02:09:22;;;;;;;25.10;17.30;;;;;;;5.12;100.00;101169.11;1822144;77;21140;-92
2021/01/02 02:12:05;;;;;;;27.05;17.25;;;;;;;5.09;100.00;101171.84;1846329;77;21190;-91
2021/01/02 02:15:00;;;;;;;27.13;17.92;;;;;;;5.10;100.00;101178.22;1845693;77;21087;-91
2021/01/02 02:17:44;;;;;;;27.77;18.87;;;;;;;5.11;100.00;101178.61;1845692;77;21407;-92
2021/01/02 02:20:25;;;;;;;25.57;17.85;;;;;;;5.09;100.00;101186.04;1842105;77;21132;-91
2021/01/02 02:23:09;;;;;;;27.15;19.17;;;;;;;5.08;100.00;101194.69;1843008;77;21131;-91
2021/01/02 02:25:52;;;;;;;36.25;18.50;;;;;;;5.10;100.00;101194.14;1838107;77;21143;-91
2021/01/02 02:28:42;;;;;;;24.70;18.17;;;;;;;5.10;100.00;101194.14;1808594;78;21091;-91
2021/01/02 02:31:15;;;;;;;27.02;19.98;;;;;;;5.11;100.00;101194.53;1822751;77;21120;-92
2021/01/02 02:34:00;;;;;;;25.75;18.25;;;;;;;5.12;100.00;101194.48;1832099;77;21609;-92
2021/01/02 02:36:32;;;;;;;29.82;18.62;;;;;;;5.13;100.00;101200.48;1845178;77;21174;-92
2021/01/02 02:39:07;;;;;;;27.22;17.95;;;;;;;5.14;100.00;101213.78;1845636;77;21143;-92
2021/01/02 02:42:00;;;;;;;26.25;18.12;;;;;;;5.13;100.00;101214.21;1844739;77;21088;-93
2021/01/02 02:45:11;;;;;;;25.30;17.00;;;;;;;5.13;100.00;101224.54;1843895;77;21180;-91
2021/01/02 02:52:35;;;;;;;25.75;17.37;;;;;;;5.13;100.00;101225.00;1845993;77;20285;-90
2021/01/02 02:55:38;;;;;;;26.57;17.25;;;;;;;5.13;100.00;101226.30;1845781;77;21494;-91
2021/01/02 02:58:07;;;;;;;30.90;19.40;;;;;;;5.11;100.00;101228.95;1845413;77;21214;-90
2021/01/02 03:00:37;;;;;;;31.33;18.48;;;;;;;5.12;100.00;101224.18;1845503;77;22087;-90
2021/01/02 03:03:09;;;;;;;32.65;19.17;;;;;;;5.12;100.00;101224.18;1847631;77;21617;-90
2021/01/02 03:05:40;;;;;;;28.57;18.92;;;;;;;5.13;100.00;101228.88;1844929;77;21116;-90
2021/01/02 03:08:08;;;;;;;32.83;20.37;;;;;;;5.15;100.00;101229.66;1847909;77;21127;-90
2021/01/02 03:11:05;;;;;;;30.70;20.92;;;;;;;5.19;100.00;101235.06;1848099;77;21535;-90
2021/01/02 03:13:41;;;;;;;35.73;20.57;;;;;;;5.22;100.00;101243.98;1848059;77;22266;-90
2021/01/02 03:16:09;;;;;;;38.70;21.97;;;;;;;5.22;100.00;101243.98;1847910;77;21108;-90
2021/01/02 03:18:41;;;;;;;35.58;20.60;;;;;;;5.21;100.00;101245.70;1847962;77;21040;-90
2021/01/02 03:21:15;;;;;;;39.15;21.55;;;;;;;5.21;100.00;101247.47;1847967;77;21032;-89
2021/01/02 03:23:46;;;;;;;35.20;20.10;;;;;;;5.21;100.00;101250.05;1811380;77;21147;-90
2021/01/02 03:26:16;;;;;;;;;;;;;;;5.22;100.00;101260.77;1853651;76;22318;-90
2021/01/02 03:33:09;;;;;;;40.10;22.00;;;;;;;5.20;100.00;101265.15;1794047;79;21451;-91
2021/01/02 03:35:37;;;;;;;34.75;19.40;;;;;;;5.15;100.00;101273.55;1810922;77;21171;-91
2021/01/02 03:41:31;;;;;;;36.55;19.87;;;;;;;5.12;100.00;101278.83;1825252;78;22243;-92
2021/01/02 03:44:00;;;;;;;37.23;21.68;;;;;;;5.13;100.00;101281.80;1801912;78;21130;-93
2021/01/02 03:58:52;;;;;;;42.58;22.95;;;;;;;5.14;100.00;101301.09;1792859;80;21391;-91
2021/01/02 04:05:13;;;;;;;40.38;22.95;;;;;;;5.15;100.00;101312.28;1752230;80;21201;-90
2021/01/02 04:08:03;;;;;;;47.98;26.80;;;;;;;5.15;100.00;101323.44;1742954;82;21130;-90
2021/01/02 04:14:55;;;;;;;48.40;26.30;;;;;;;5.12;100.00;101331.33;1709346;84;21525;-89
2021/01/02 04:21:48;;;;;;;57.70;31.10;;;;;;;5.08;100.00;101337.50;1709359;84;21169;-90
2021/01/02 04:28:40;;;;;;;57.00;30.08;;;;;;;4.98;100.00;101346.07;1709351;84;21145;-90
2021/01/02 04:35:34;;;;;;;67.97;36.03;;;;;;;4.85;100.00;101377.97;1709248;84;21140;-87
2021/01/02 04:38:34;;;;;;;59.90;33.45;;;;;;;4.85;100.00;101377.97;1709525;83;21144;-91
2021/01/02 04:44:32;;;;;;;60.33;33.45;;;;;;;4.92;100.00;101392.78;1709272;83;21118;-92
2021/01/02 04:47:03;;;;;;;53.52;28.57;;;;;;;4.92;100.00;101400.95;1709156;84;21372;-91
2021/01/02 04:49:32;;;;;;;;;;;;;;;4.92;100.00;101405.69;1711719;83;21193;-92
2021/01/02 04:52:07;;;;;;;48.60;26.93;;;;;;;4.91;100.00;101425.94;1709216;84;20314;-92
2021/01/02 04:54:37;;;;;;;48.13;27.35;;;;;;;4.91;100.00;101425.94;1709216;83;21161;-92
2021/01/02 04:57:09;;;;;;;39.30;22.90;;;;;;;4.89;100.00;101430.31;1706345;83;21100;-92
2021/01/02 05:03:12;;;;;;;41.35;23.65;;;;;;;4.85;100.00;101444.22;1709133;83;21256;-92
2021/01/02 05:09:31;;;;;;;34.50;19.10;;;;;;;4.56;100.00;101471.52;1738798;81;21193;-90
2021/01/02 05:16:38;;;;;;;32.50;18.82;;;;;;;4.52;100.00;101475.55;1765830;80;21122;-89
2021/01/02 05:27:53;;;;;;;27.93;18.02;;;;;;;4.31;100.00;101484.88;1803950;79;21508;-90
2021/01/02 05:34:45;;;;;;;29.10;18.42;;;;;;;4.19;100.00;101499.87;1804003;79;21132;-89
2021/01/02 05:41:52;;;;;;;25.17;16.35;;;;;;;4.16;100.00;101517.17;1805875;78;21169;-89
2021/01/02 05:49:12;;;;;;;22.85;15.65;;;;;;;4.10;100.00;101531.97;1772470;81;21481;-89
2021/01/02 05:51:47;;;;;;;20.85;14.50;;;;;;;4.09;100.00;101547.03;1753242;80;21349;-91
2021/01/02 05:54:19;;;;;;;22.82;16.05;;;;;;;4.08;100.00;101551.79;1769056;80;21173;-91
2021/01/02 05:56:48;;;;;;;23.38;16.48;;;;;;;4.09;100.00;101557.77;1776129;80;21073;-92
2021/01/02 05:59:31;;;;;;;23.45;15.83;;;;;;;4.09;100.00;101572.81;1786154;79;21133;-91
2021/01/02 06:02:24;;;;;;;21.17;14.83;;;;;;;4.10;100.00;101577.51;1799692;79;21655;-91
2021/01/02 06:05:20;;;;;;;20.80;15.80;;;;;;;4.08;100.00;101581.89;1772123;81;21341;-91
2021/01/02 06:07:50;;;;;;;22.40;16.02;;;;;;;4.08;100.00;101591.75;1772000;80;21151;-91
2021/01/02 06:14:36;;;;;;;20.43;15.05;;;;;;;4.05;100.00;101600.02;1733830;82;21166;-93
2021/01/02 06:17:16;;;;;;;20.97;14.87;;;;;;;4.02;100.00;101613.86;1733177;82;21159;-94
2021/01/02 06:19:51;;;;;;;22.55;15.72;;;;;;;4.00;100.00;101619.50;1780028;79;21186;-93
2021/01/02 06:42:31;;;;;;;22.85;15.60;;;;;;;4.00;100.00;101662.02;1781649;80;21174;-89
2021/01/02 06:58:17;;;;;;;21.12;14.03;;;;;;;4.17;100.00;101690.31;1778557;80;21801;-88
2021/01/02 07:09:33;;;;;;;25.55;13.98;;;;;;;4.39;100.00;101713.23;1760159;80;20968;-89
2021/01/02 07:15:51;;;;;;;20.72;14.60;;;;;;;4.49;100.00;101723.27;1775886;80;21130;-90
2021/01/02 07:18:40;;;;;;;18.45;13.85;;;;;;;4.52;100.00;101728.34;1773589;81;21114;-88
2021/01/02 07:25:34;;;;;;;21.10;14.45;;;;;;;4.66;100.00;101746.80;1774092;81;21187;-92
2021/01/02 07:32:33;;;;;;;18.10;13.30;;;;;;;4.75;100.00;101752.09;1742887;82;21276;-87
2021/01/02 07:39:25;;;;;;;16.42;12.40;;;;;;;4.47;100.00;101771.47;1773460;81;21139;-87
2021/01/02 07:46:08;;;;;;;16.23;13.30;;;;;;;4.20;100.00;101785.63;1773490;81;21064;-87
2021/01/02 07:53:02;;;;;;;17.73;13.05;;;;;;;4.07;100.00;101794.98;1769448;79;21122;-88
2021/01/02 07:59:54;;;;;;;16.67;12.50;;;;;;;4.09;100.00;101819.42;1771168;81;21130;-88
2021/01/02 08:06:54;;;;;;;15.63;12.23;;;;;;;4.07;100.00;101824.62;1772181;81;21067;-89
2021/01/02 08:13:27;;;;;;;12.90;10.45;;;;;;;4.01;100.00;101835.12;1769902;79;21118;-88
2021/01/02 08:20:20;;;;;;;14.25;11.40;;;;;;;4.01;100.00;101843.28;1769037;80;21439;-88
2021/01/02 08:27:11;;;;;;;14.45;10.98;;;;;;;4.07;100.00;101854.73;1750677;82;21195;-92
2021/01/02 08:34:05;;;;;;;14.00;10.93;;;;;;;4.08;100.00;101853.39;1758436;80;21170;-91
2021/01/02 08:37:07;;;;;;;12.65;10.10;;;;;;;4.13;100.00;101860.17;1751863;80;21552;-91
2021/01/02 08:43:27;;;;;;;16.25;11.70;;;;;;;4.24;100.00;101863.27;1754612;80;21138;-91
2021/01/02 08:50:20;;;;;;;12.23;9.95;;;;;;;4.32;100.00;101868.22;1745761;80;21114;-89
2021/01/02 08:57:37;;;;;;;14.33;10.82;;;;;;;4.32;100.00;101876.79;1740995;81;21135;-90
2021/01/02 09:08:34;;;;;;;12.23;9.98;;;;;;;4.16;100.00;101884.13;1742424;81;21208;-89
2021/01/02 09:15:09;;;;;;;11.73;9.25;;;;;;;4.07;100.00;101892.95;1744401;81;21551;-91
2021/01/02 09:22:01;;;;;;;11.28;8.13;;;;;;;4.07;100.00;101894.69;1780303;80;21128;-90
2021/01/02 09:28:59;;;;;;;10.65;8.68;;;;;;;4.02;100.00;101899.97;1785584;80;21131;-91
2021/01/02 09:35:50;;;;;;;11.70;8.93;;;;;;;3.98;100.00;101904.79;1778749;80;21380;-90
2021/01/02 09:38:49;;;;;;;14.47;9.55;;;;;;;3.98;100.00;101905.25;1781958;80;21514;-90
2021/01/02 09:41:45;;;;;;;11.43;8.80;;;;;;;3.97;100.00;101906.95;1779371;80;21131;-90
2021/01/02 09:44:13;;;;;;;11.83;8.78;;;;;;;3.97;100.00;101910.83;1781256;80;21178;-91
2021/01/02 09:47:18;;;;;;;11.20;8.58;;;;;;;3.97;100.00;101910.83;1778187;80;21351;-92
2021/01/02 09:54:10;;;;;;;12.23;9.08;;;;;;;3.97;100.00;101915.15;1781877;80;21112;-92
2021/01/02 09:57:07;;;;;;;10.95;8.83;;;;;;;3.92;100.00;101915.27;1780119;80;21068;-91
2021/01/02 10:00:07;;;;;;;11.78;8.53;;;;;;;3.89;100.00;101917.48;1780324;79;21108;-91
2021/01/02 10:02:36;;;;;;;11.95;8.60;;;;;;;3.88;100.00;101918.37;1783602;80;21331;-91
2021/01/02 10:08:59;;;;;;;12.40;9.35;;;;;;;3.81;100.00;101925.00;1785406;80;21076;-90
2021/01/02 10:15:33;;;;;;;10.40;8.40;;;;;;;3.71;100.00;101930.41;1785674;79;21151;-89
2021/01/02 10:22:58;;;;;;;;;;;;;;;3.66;100.00;101935.27;1782427;80;21177;-90
2021/01/02 10:25:26;;;;;;;12.05;9.78;;;;;;;3.65;100.00;101940.02;1767215;80;20549;-89
2021/01/02 10:28:01;;;;;;;12.60;9.95;;;;;;;3.66;100.00;101947.69;1767172;80;21407;-91
2021/01/02 10:30:29;;;;;;;10.48;8.98;;;;;;;3.67;100.00;101946.81;1767126;80;21112;-90
2021/01/02 10:36:26;;;;;;;11.03;8.93;;;;;;;3.69;100.00;101947.63;1767034;80;21159;-89
2021/01/02 10:39:22;;;;;;;11.75;9.10;;;;;;;3.71;100.00;101945.87;1767003;81;21140;-90
2021/01/02 10:41:53;;;;;;;12.00;9.38;;;;;;;3.71;100.00;101939.42;1737290;81;21179;-92
2021/01/02 10:44:22;;;;;;;10.93;8.88;;;;;;;3.72;100.00;101937.26;1767217;80;21188;-89
2021/01/02 10:47:19;;;;;;;11.12;8.95;;;;;;;3.73;100.00;101937.63;1767076;80;21374;-90
2021/01/02 10:49:50;;;;;;;11.73;8.93;;;;;;;3.74;100.00;101944.48;1766855;81;21160;-90
2021/01/02 10:52:27;;;;;;;10.82;8.63;;;;;;;3.77;100.00;101939.27;1766753;80;21053;-90
2021/01/02 10:54:55;;;;;;;10.85;9.00;;;;;;;3.78;100.00;101938.38;1771954;80;21147;-89
2021/01/02 10:57:27;;;;;;;10.53;8.75;;;;;;;3.79;100.00;101942.66;1783909;80;21115;-90
2021/01/02 10:59:56;;;;;;;11.25;9.20;;;;;;;3.81;100.00;101948.19;1776894;80;21550;-89
2021/01/02 11:02:25;;;;;;;10.88;9.05;;;;;;;3.80;100.00;101946.06;1775795;80;21077;-89
2021/01/02 11:04:59;;;;;;;10.28;9.20;;;;;;;3.82;100.00;101944.73;1764179;80;21092;-89
2021/01/02 11:11:54;;;;;;;11.80;9.20;;;;;;;3.85;100.00;101960.13;1784727;80;21374;-87
2021/01/02 11:22:31;;;;;;;12.58;10.32;;;;;;;3.86;100.00;101965.69;1761369;80;21147;-89
2021/01/02 11:29:26;;;;;;;19.55;14.50;;;;;;;3.85;100.00;101966.56;1797328;79;21548;-88
2021/01/02 11:36:18;;;;;;;14.87;11.75;;;;;;;3.82;100.00;101976.94;1769193;80;21113;-87
2021/01/02 11:47:30;;;;;;;18.35;12.90;;;;;;;3.66;100.00;101994.06;1774232;79;21059;-87
2021/01/02 11:54:23;;;;;;;15.58;12.73;;;;;;;3.60;100.00;101990.35;1778394;80;21155;-87
2021/01/02 12:01:16;;;;;;;16.87;12.10;;;;;;;3.58;100.00;101993.41;1751260;79;21170;-86
2021/01/02 12:08:08;;;;;;;15.93;12.68;;;;;;;3.59;100.00;102008.84;1782466;80;21058;-88
2021/01/02 12:15:02;;;;;;;16.37;12.90;;;;;;;3.53;100.00;102020.55;1781568;80;21165;-87
2021/01/02 12:21:35;;;;;;;21.10;16.12;;;;;;;3.53;100.00;102031.31;1754719;80;21128;-87
2021/01/02 12:28:27;;;;;;;22.00;16.37;;;;;;;3.47;100.00;102026.72;1763318;80;21161;-88
2021/01/02 12:35:18;;;;;;;18.48;14.95;;;;;;;3.36;100.00;102035.11;1756893;80;21186;-87
2021/01/02 12:41:25;;;;;;;21.42;16.70;;;;;;;3.30;100.00;102043.80;1750024;80;21623;-89
2021/01/02 12:43:54;;;;;;;21.37;16.23;;;;;;;3.28;100.00;102043.44;1749931;82;21610;-89
2021/01/02 12:46:22;;;;;;;22.55;17.73;;;;;;;3.30;100.00;102050.70;1738685;80;21250;-89
2021/01/02 12:48:50;;;;;;;22.95;17.57;;;;;;;3.33;100.00;102054.47;1716744;82;21184;-89
2021/01/02 12:51:22;;;;;;;26.33;18.32;;;;;;;3.36;100.00;102055.70;1716548;82;21120;-88
2021/01/02 12:53:50;;;;;;;22.90;18.43;;;;;;;3.41;100.00;102062.05;1728442;82;21203;-89
2021/01/02 12:56:18;;;;;;;23.90;19.20;;;;;;;3.42;100.00;102063.29;1737842;81;21167;-89
2021/01/02 12:58:47;;;;;;;26.17;18.92;;;;;;;3.43;100.00;102058.55;1748219;82;21147;-89
2021/01/02 13:01:18;;;;;;;22.77;17.30;;;;;;;3.45;100.00;102059.38;1737938;82;21203;-89
2021/01/02 13:03:46;;;;;;;22.70;17.77;;;;;;;3.46;100.00;102058.50;1748322;82;21131;-89
2021/01/02 13:06:16;;;;;;;22.17;17.15;;;;;;;3.46;100.00;102068.80;1738046;82;21197;-89
2021/01/02 13:08:45;;;;;;;22.20;17.27;;;;;;;3.47;100.00;102065.34;1748134;82;21582;-88
2021/01/02 13:11:14;;;;;;;22.67;17.67;;;;;;;3.50;100.00;102072.16;1738009;81;21128;-89
2021/01/02 13:13:43;;;;;;;22.73;16.48;;;;;;;3.50;100.00;102070.00;1748477;82;21175;-89
2021/01/02 13:16:13;;;;;;;23.75;17.70;;;;;;;3.52;100.00;102078.55;1739903;82;21151;-89
2021/01/02 13:18:41;;;;;;;26.05;18.32;;;;;;;3.50;100.00;102076.44;1739843;82;21214;-89
2021/01/02 13:21:11;;;;;;;24.87;18.65;;;;;;;3.48;100.00;102081.18;1751956;80;21148;-89
2021/01/02 13:23:40;;;;;;;25.43;18.62;;;;;;;3.47;100.00;102088.95;1803357;78;21173;-89
2021/01/02 13:26:14;;;;;;;25.23;18.65;;;;;;;3.44;100.00;102091.16;1803534;79;21093;-89
2021/01/02 13:28:46;;;;;;;26.45;19.55;;;;;;;3.43;100.00;102096.34;1803070;78;21172;-89
2021/01/02 13:31:14;;;;;;;27.55;19.27;;;;;;;3.39;100.00;102098.56;1771321;80;21198;-89
2021/01/02 13:33:42;;;;;;;24.02;18.90;;;;;;;3.34;100.00;102102.98;1794441;78;21257;-88
2021/01/02 13:36:10;;;;;;;26.87;19.65;;;;;;;3.31;100.00;102110.33;1803396;79;21208;-88
2021/01/02 13:38:38;;;;;;;27.32;18.95;;;;;;;3.27;100.00;102109.97;1803312;79;21157;-85
2021/01/02 13:48:53;;;;;;;28.60;19.35;;;;;;;3.29;100.00;102128.36;1802826;79;21173;-85
2021/01/02 13:51:22;;;;;;;24.35;17.60;;;;;;;3.33;100.00;102125.28;1787645;79;21139;-88
2021/01/02 13:53:53;;;;;;;29.30;19.52;;;;;;;3.33;100.00;102133.02;1780196;80;21072;-89
2021/01/02 13:56:22;;;;;;;27.45;19.62;;;;;;;3.34;100.00;102137.28;1780373;80;21186;-89
2021/01/02 13:58:51;;;;;;;26.48;17.62;;;;;;;3.36;100.00;102143.26;1780253;80;21623;-89
2021/01/02 14:01:23;;;;;;;26.55;19.10;;;;;;;3.35;100.00;102148.00;1780295;80;21460;-88
2021/01/02 14:03:51;;;;;;;32.50;19.75;;;;;;;3.35;100.00;102146.71;1780304;80;21422;-89
2021/01/02 14:06:26;;;;;;;29.98;20.40;;;;;;;3.37;100.00;102148.83;1780310;80;21183;-89
2021/01/02 14:08:54;;;;;;;25.75;18.85;;;;;;;3.38;100.00;102150.95;1780404;80;21116;-89
2021/01/02 14:11:24;;;;;;;31.65;22.45;;;;;;;3.37;100.00;102155.69;1780470;80;21460;-89
2021/01/02 14:13:56;;;;;;;34.40;21.68;;;;;;;3.35;100.00;102156.17;1776903;80;21119;-89
2021/01/02 14:16:26;;;;;;;30.85;22.62;;;;;;;3.33;100.00;102163.08;1780799;80;21242;-89
2021/01/02 14:18:56;;;;;;;32.98;23.85;;;;;;;3.30;100.00;102162.70;1780678;80;21422;-89
2021/01/02 14:21:26;;;;;;;36.83;26.82;;;;;;;3.34;100.00;102159.17;1780734;80;21119;-89
2021/01/02 14:23:55;;;;;;;35.85;24.87;;;;;;;3.36;100.00;102163.86;1780727;80;21151;-90
2021/01/02 14:26:25;;;;;;;38.73;27.07;;;;;;;3.36;100.00;102166.44;1780579;80;21163;-89
2021/01/02 14:28:57;;;;;;;42.62;25.97;;;;;;;3.39;100.00;102170.25;1780570;80;21195;-89
2021/01/02 14:35:49;;;;;;;37.23;25.27;;;;;;;3.33;100.00;102170.80;1798340;79;21712;-85
2021/01/02 14:42:42;;;;;;;38.28;23.95;;;;;;;3.14;100.00;102177.16;1783480;77;21149;-87
2021/01/02 14:49:25;;;;;;;38.55;22.85;;;;;;;3.02;100.00;102189.41;1802602;78;21161;-87
2021/01/02 14:52:22;;;;;;;81.25;26.05;;;;;;;2.89;100.00;102195.20;1803979;78;21166;-85
2021/01/02 14:55:21;;;;;;;62.20;26.85;;;;;;;2.79;100.00;102200.95;1801548;79;21589;-90
2021/01/02 14:57:49;;;;;;;43.38;25.88;;;;;;;2.69;100.00;102200.24;1803719;79;21114;-89
2021/01/02 15:00:20;;;;;;;38.02;24.92;;;;;;;2.61;100.00;102200.80;1803807;78;21046;-89
2021/01/02 15:02:48;;;;;;;42.15;23.52;;;;;;;2.56;100.00;102203.90;1803210;78;21077;-89
2021/01/02 15:05:25;;;;;;;45.33;23.98;;;;;;;2.52;100.00;102205.67;1801015;79;21074;-90
2021/01/02 15:07:53;;;;;;;34.80;23.02;;;;;;;2.49;100.00;102203.14;1802814;78;22134;-89
2021/01/02 15:10:49;;;;;;;33.42;23.32;;;;;;;2.47;100.00;102210.88;1803765;79;21181;-89
2021/01/02 15:13:19;;;;;;;35.08;25.60;;;;;;;2.45;100.00;102208.77;1803824;79;21177;-89
2021/01/02 15:15:47;;;;;;;37.17;25.95;;;;;;;2.39;100.00;102207.58;1803735;78;21070;-89
2021/01/02 15:18:23;;;;;;;42.53;27.48;;;;;;;2.33;100.00;102215.39;1799310;79;21223;-89
2021/01/02 15:20:51;;;;;;;42.38;26.87;;;;;;;2.27;100.00;102219.34;1802664;79;21195;-89
2021/01/02 15:23:20;;;;;;;51.25;31.48;;;;;;;2.15;100.00;102217.36;1770182;81;21135;-89
2021/01/02 15:25:48;;;;;;;44.93;30.90;;;;;;;2.07;100.00;102225.60;1817897;78;21137;-89
2021/01/02 15:28:16;;;;;;;47.78;32.45;;;;;;;2.00;100.00;102224.83;1803279;78;21137;-89
2021/01/02 15:30:46;;;;;;;47.20;31.80;;;;;;;1.96;100.00;102228.32;1800512;79;21101;-89
2021/01/02 15:33:20;;;;;;;44.73;30.08;;;;;;;1.95;100.00;102224.50;1803618;79;21520;-89
2021/01/02 15:35:50;;;;;;;46.50;31.95;;;;;;;1.97;100.00;102227.88;1803669;78;21105;-89
2021/01/02 15:38:18;;;;;;;47.53;29.37;;;;;;;2.01;100.00;102229.55;1803912;79;21145;-89
2021/01/02 15:40:46;;;;;;;43.60;27.27;;;;;;;2.05;100.00;102230.77;1803779;79;21192;-89
2021/01/02 15:43:14;;;;;;;46.08;29.30;;;;;;;2.05;100.00;102226.05;1801088;78;21218;-89
2021/01/02 15:45:42;;;;;;;45.35;29.65;;;;;;;2.04;100.00;102221.81;1802388;78;21368;-89
2021/01/02 15:48:17;;;;;;;46.20;28.27;;;;;;;2.01;100.00;102224.41;1803721;78;21141;-89
2021/01/02 15:50:45;;;;;;;44.83;26.60;;;;;;;1.96;100.00;102233.91;1803660;78;21160;-89
2021/01/02 15:53:16;;;;;;;43.52;26.20;;;;;;;1.90;100.00;102233.55;1786804;79;21139;-89
2021/01/02 15:55:50;;;;;;;46.05;26.95;;;;;;;1.82;100.00;102231.06;1768082;80;21369;-89
2021/01/02 15:58:19;;;;;;;38.88;23.90;;;;;;;1.78;100.00;102234.55;1798468;79;21366;-89
2021/01/02 16:00:49;;;;;;;35.95;23.75;;;;;;;1.73;100.00;102234.61;1804513;79;21125;-89
2021/01/02 16:03:19;;;;;;;34.35;23.12;;;;;;;1.72;100.00;102239.77;1806652;78;21102;-89
2021/01/02 16:05:53;;;;;;;40.28;23.85;;;;;;;1.70;100.00;102241.05;1802279;78;21549;-89
2021/01/02 16:08:24;;;;;;;34.98;22.27;;;;;;;1.71;100.00;102243.20;1802882;78;21548;-89
2021/01/02 16:10:58;;;;;;;33.83;22.62;;;;;;;1.73;100.00;102247.86;1803548;79;21428;-89
2021/01/02 16:13:55;;;;;;;31.12;21.55;;;;;;;1.69;100.00;102250.07;1803993;79;21156;-89
2021/01/02 16:16:31;;;;;;;38.73;24.00;;;;;;;1.61;100.00;102257.84;1803638;78;21534;-89
2021/01/02 16:18:59;;;;;;;36.28;22.93;;;;;;;1.50;100.00;102263.10;1803949;78;21117;-89
2021/01/02 16:21:30;;;;;;;35.48;23.85;;;;;;;1.43;100.00;102267.89;1814767;78;21100;-88
2021/01/02 16:24:00;;;;;;;35.23;24.15;;;;;;;1.29;100.00;102271.03;1814732;78;21367;-89
2021/01/02 16:26:39;;;;;;;32.00;22.87;;;;;;;1.21;100.00;102273.66;1814590;78;21121;-88
2021/01/02 16:29:15;;;;;;;33.10;23.83;;;;;;;1.16;100.00;102277.99;1814658;78;21120;-89
2021/01/02 16:32:00;;;;;;;36.48;24.90;;;;;;;1.12;100.00;102278.90;1811595;79;21525;-88
2021/01/02 16:34:47;;;;;;;37.45;25.55;;;;;;;1.11;100.00;102283.16;1810780;79;21085;-89
2021/01/02 16:37:43;;;;;;;41.68;26.70;;;;;;;1.10;100.00;102278.89;1785785;79;21294;-89
2021/01/02 16:40:15;;;;;;;46.98;31.05;;;;;;;1.10;100.00;102281.05;1785350;78;21060;-88
2021/01/02 16:42:44;;;;;;;55.28;34.85;;;;;;;1.13;100.00;102279.29;1785372;80;21195;-88
2021/01/02 16:45:13;;;;;;;52.67;36.58;;;;;;;1.11;100.00;102272.89;1807107;77;21599;-88
2021/01/02 16:47:41;;;;;;;60.15;39.42;;;;;;;1.11;100.00;102280.59;1813315;77;21168;-88
2021/01/02 16:50:11;;;;;;;64.80;40.73;;;;;;;1.12;100.00;102281.47;1814708;79;21263;-88
2021/01/02 16:52:42;;;;;;;72.00;42.90;;;;;;;1.12;100.00;102276.33;1814693;78;21124;-88
2021/01/02 16:55:11;;;;;;;76.47;43.90;;;;;;;1.09;100.00;102278.05;1813762;78;21089;-88
2021/01/02 16:57:40;;;;;;;56.73;35.58;;;;;;;1.08;100.00;102281.92;1814630;78;21145;-88
2021/01/02 17:00:10;;;;;;;45.70;28.80;;;;;;;1.08;100.00;102288.34;1814819;79;21061;-88
2021/01/02 17:02:38;;;;;;;46.80;28.95;;;;;;;1.04;100.00;102280.23;1814699;79;21366;-89
2021/01/02 17:05:07;;;;;;;43.05;26.12;;;;;;;1.00;100.00;102290.12;1803922;78;21112;-88
2021/01/02 17:07:35;;;;;;;36.83;24.77;;;;;;;0.97;100.00;102285.00;1792166;80;21190;-88
2021/01/02 17:10:05;;;;;;;38.00;25.90;;;;;;;0.94;100.00;102295.70;1811767;79;21156;-88
2021/01/02 17:12:34;;;;;;;39.58;24.67;;;;;;;0.94;100.00;102297.42;1814545;79;21117;-88
2021/01/02 17:15:03;;;;;;;40.65;26.97;;;;;;;0.91;100.00;102300.87;1800918;79;21380;-88
2021/01/02 17:17:32;;;;;;;46.85;27.17;;;;;;;0.93;100.00;102304.25;1792360;79;21204;-88
2021/01/02 17:20:00;;;;;;;50.70;28.23;;;;;;;1.04;100.00;102304.61;1810625;79;21588;-88
2021/01/02 17:22:28;;;;;;;43.17;27.02;;;;;;;1.14;100.00;102304.09;1803312;77;21562;-88